Funds performance

fund name 1 mth 3 mth 12 mthsort icon ytd Inception Net assets Return Date
KBC Instl Ethical Euro Eqs Acc 0.07% 2.57% 21.86% 2.57% -0.69% 58810087 2014-03-31
Nicholas Limited Edition I 0.11% -0.37% 21.86% -0.37% 10.16% 2014-03-31
Standard Life SICAV Global Eqs D -1.28% 0.82% 21.86% 0.82% 10.15% 308781925 2014-03-31
Vanguard Value Index Signal 2.60% 2.80% 21.87% 2.80% 3.67% 2014-03-31
PowerShares Fundamental Pure Large Grow 1.28% 2.85% 21.87% 2.85% 17.25% 2014-03-31
Serone Key Opportunities Fund 0.37% 1.95% 21.87% 1.74% 43.92% 2014-02-28
iShares S&P 500 Index C$-Hedged 0.86% 1.69% 21.88% 1.69% 1.67% 2069744140 2014-03-31
Wholesale SHARE-PLUS Fund -0.67% 1.38% 21.88% 1.38% 0.00% 2014-03-31
CFS FC W Pen-CFS W Future Leaders 9.67% 1.13% 21.88% 6.26% 0.00% 670650755 2013-07-31
Dexia Quant Eqs USA V 0.97% 2.03% 21.88% 2.03% 0.00% 1194972766 2014-03-31
Quality USA Equity USD C 1.94% 0.47% 21.88% 0.47% 8.46% 19366330 2014-03-31
TimesSquare Mid Cap Growth Instl -1.16% 1.41% 21.88% 1.41% 10.54% 2014-03-31
Scottish Widows UK Idx Lnkd Trkr I Inc -0.70% 10.27% 21.88% -0.70% 6.60% 270765018 2012-01-31
UBS (Lux) IF Key Sel Global Eq AA USD -1.02% 0.84% 21.88% 0.84% 4.67% 1936079569 2014-03-31
Delaware US Growth Instl -2.62% -0.04% 21.88% -0.04% 7.62% 2014-03-31
BGF European Focus I2 -0.82% 4.50% 21.88% 4.50% 13.60% 2706359205 2014-03-31
iShares S&P Global Industrials Idx C$Hdg 0.36% -0.74% 21.88% -0.74% 21.50% 19195280 2014-03-31
Sheraton Partners LP 4.62% 3.68% 21.89% 0.60% 8.37% 2014-02-28
Russell US Core Equity Y 0.37% 1.94% 21.89% 1.94% 3.18% 2014-03-31
Acatis Aktien Europa Fonds UI A1 -2.47% 2.56% 21.89% 2.56% 3.64% 24653019 2014-03-31
Oyster European Selection I CHF -1.48% 2.75% 21.89% 2.75% 29.60% 2014-03-31
Amundi Capital VaR 20 EUR I -0.83% 2.47% 21.90% 17.55% 5.17% 7181236 2012-08-31
Columbia International Value I -1.59% 0.13% 21.90% 0.13% 6.70% 2014-03-31
PIMCO GIS StocksPlus Inst Acc 0.63% 1.92% 21.90% 1.92% 4.87% 610387456 2014-03-31
ComStage FR DAX® ETF -1.44% -0.11% 21.90% -0.11% 13.57% 45268629 2014-03-31
Vanguard Value ETF 2.61% 2.82% 21.90% 2.82% 7.29% 2014-03-31
Raiffeisen-TopDividende-Aktien I VT -0.93% 2.02% 21.90% 2.02% 35.45% 100865867 2014-03-31
Roxbury/Mar Vista Strategic Growth Instl 1.05% 2.34% 21.90% 2.34% 20.18% 2014-03-31
Parworld Quant Equity Europe Guru I -1.88% 4.78% 21.90% 4.78% 21.89% 154903241 2014-03-31
Fideuram Zero Coupon 2035 3.42% 14.61% 21.91% 14.61% 5.63% 6571818 2014-03-31

Upcoming events

Upcoming training

Mon, 12/05/2014 (All day) - Dubai
Tue, 13/05/2014 (All day) - Dubai